Airfield :
LOGIN :

Register | Disclaimer

   EN    FR    IT 

 










Legend :    VFR   Marginal VFR   IFR   Intensive IFR   Very Intensive IFR
Visi :
Ceiling :
>= 8 km
>= 3000ft
5 to 8 km
1000 to 3000 ft
1500m to 5 km
500 to 1000 ft
800 to 1500m
200 to 500 ft
< 800m
< 200 ft
Symbols :   Thunderstorms  Fog  Heavy snow  Heavy precipitations  Wind > 20 kt
SIGMETs :     Misc.  Thunderstorms  Icing  Turbulence  Mountain Waves  Volcanic Ashes






- Airport Elevation : 2031 ft


LEGT - Madrid Getafe

CURRENT METAR :
  • 021500Z 02012KT 9999 SCT045TCU 15/05 Q1012

EXPIRED METARs :
  • 021400Z 05014KT 020V080 9999 BKN040 SCT045TCU 15/06 Q1012
  • 021300Z 03006KT 9999 BKN040 FEW045TCU 16/06 Q1012

TAF TAF LEGT
Valid from the 02 at 15:00 until the 03 at 00:00 UTC


021400Z 0215/0224 VRB05KT 9999 SCT045
TEMPO 0215/0219 03010KT FEW045TCU
PROB30
TEMPO 0215/0220 4000 SHRA SCT045TCU



MET'MAP, your aeronautical weather chart ! - Copyright ORBIFLY December 2007 - Disclaimer

ORBIFLY MET'MAP TEAM :

Programming & Development : Alexandra Zaïnal
Concept & original design : Baudouin d'Aumeries
Assistance for programming : Marc-Olivier Méhu
Technical & hardware support : Manuel Goepfert

Contact : metmap@orbifly.com




SOURCES & CREDITS :

   NOAA